VTPH/HHQ METAR and TAF weather

Enter ICAO airport designator
Station Type Date Time Source
VTPH METAR 2019/08/24 11:00 UTC NOAA

VTPH 241100Z 25004KT 170V340 9999 SCT040 BKN100 30/23 Q1006 NOSIG


Station Type Date Time Source
VTPH Decoded METAR 2019/08/24 11:00 UTC NOAA

Station name not available
Aug 24, 2019 - 07:00 AM EDT / 2019.08.24 1100 UTC
Wind: from the WSW (250 degrees) at 5 MPH (4 KT) (direction variable):0
Visibility: greater than 7 mile(s):0
Sky conditions: mostly cloudy
Temperature: 86 F (30 C)
Heat index: 93.4 F (34.1 C):1
Dew Point: 73 F (23 C)
Relative Humidity: 66%
Pressure (altimeter): 29.71 in. Hg (1006 hPa)
ob: VTPH 241100Z 25004KT 170V340 9999 SCT040 BKN100 30/23 Q1006 NOSIG
cycle: 11

Station Type Date Time Source
VTPH TAF 2019/08/24 18:00 UTC NOAA

TAF VTPH 241700Z 2418/2518 00000KT 9999 FEW030
BECMG 2502/2504 23005KT
TEMPO 2508/2512 VRB12KT 6000 -TSRA FEW018CB SCT028 BKN080
BECMG 2514/2516 00000KT

Example: see airport list